This is the latest recevied weather packets stored in our database for station/object LTAC. If no packets are shown the sender has not sent any weather packets the latest 10 day(s).
| Time | Temp. | Humidity | Pressure | Rain* | Wind** | Luminosity | Snow |
|---|---|---|---|---|---|---|---|
| 1777917606 | 5° C | 75% | 1009 hPa | - | - | - | - |
| 1777916704 | 5° C | 75% | 1009 hPa | - | - | - | - |
| 1777915804 | 5° C | 75% | 1009 hPa | - | - | - | - |
| 1777914904 | 6.11° C | 70% | 1008 hPa | - | - | - | - |
| 1777914004 | 6.11° C | 70% | 1008 hPa | - | - | - | - |
| 1777913104 | 6.11° C | 70% | 1008 hPa | - | - | - | - |
| 1777911303 | 6.11° C | 75% | 1008 hPa | - | - | - | - |
| 1777910404 | 6.11° C | 75% | 1008 hPa | - | - | - | - |
| 1777908604 | 6.11° C | 70% | 1008 hPa | - | - | - | - |
| 1777906805 | 7.22° C | 65% | 1007 hPa | - | - | - | - |
| 1777904104 | 7.78° C | 70% | 1007 hPa | - | - | - | - |
| 1777903204 | 7.78° C | 70% | 1007 hPa | - | - | - | - |
| 1777902304 | 7.22° C | 70% | 1007 hPa | - | - | - | - |
| 1777900504 | 7.78° C | 70% | 1007 hPa | - | - | - | - |
| 1777899605 | 7.78° C | 70% | 1007 hPa | - | - | - | - |
| 1777898704 | 7.78° C | 65% | 1007 hPa | - | - | - | - |
| 1777897805 | 7.78° C | 65% | 1007 hPa | - | - | - | - |
| 1777896904 | 7.22° C | 75% | 1007 hPa | - | - | - | - |
| 1777895104 | 7.22° C | 81% | 1007 hPa | - | - | - | - |
| 1777894205 | 7.22° C | 81% | 1007 hPa | - | - | - | - |
| 1777893304 | 7.22° C | 70% | 1007 hPa | - | - | - | - |
| 1777892404 | 7.22° C | 70% | 1007 hPa | - | - | - | - |
| 1777891504 | 6.11° C | 81% | 1007 hPa | - | - | - | - |
| 1777890604 | 6.11° C | 81% | 1007 hPa | - | - | - | - |
| 1777887004 | 6.11° C | 81% | 1007 hPa | - | - | - | - |
* Rain since midnight (hover to see other rain measurements)
** Current wind speed in m/s (hover to see current wind gust speed)